sensor_id;sensor_type;location;lat;lon;timestamp;temperature;humidity
27940;DHT22;15275;51.716;14.324;2023-04-25T00:01:47;11.70;66.60
27940;DHT22;15275;51.716;14.324;2023-04-25T00:04:13;11.70;66.60
27940;DHT22;15275;51.716;14.324;2023-04-25T00:06:39;11.70;66.60
27940;DHT22;15275;51.716;14.324;2023-04-25T00:09:06;11.70;66.60
27940;DHT22;15275;51.716;14.324;2023-04-25T00:11:35;11.70;66.70
27940;DHT22;15275;51.716;14.324;2023-04-25T00:14:03;11.60;66.80
27940;DHT22;15275;51.716;14.324;2023-04-25T00:16:30;11.60;66.80
27940;DHT22;15275;51.716;14.324;2023-04-25T00:18:59;11.60;66.90
27940;DHT22;15275;51.716;14.324;2023-04-25T00:23:53;11.60;67.20
27940;DHT22;15275;51.716;14.324;2023-04-25T00:26:20;11.60;67.30
27940;DHT22;15275;51.716;14.324;2023-04-25T00:28:49;11.60;67.40
27940;DHT22;15275;51.716;14.324;2023-04-25T00:31:15;11.60;67.40
27940;DHT22;15275;51.716;14.324;2023-04-25T00:33:40;11.60;67.40
27940;DHT22;15275;51.716;14.324;2023-04-25T00:36:07;11.60;67.40
27940;DHT22;15275;51.716;14.324;2023-04-25T00:38:33;11.60;67.40
27940;DHT22;15275;51.716;14.324;2023-04-25T00:40:59;11.60;67.40
27940;DHT22;15275;51.716;14.324;2023-04-25T00:43:26;11.50;67.40
27940;DHT22;15275;51.716;14.324;2023-04-25T00:45:52;11.50;67.40
27940;DHT22;15275;51.716;14.324;2023-04-25T00:48:19;11.50;67.40
27940;DHT22;15275;51.716;14.324;2023-04-25T00:50:55;11.50;67.40
27940;DHT22;15275;51.716;14.324;2023-04-25T00:53:24;11.40;67.40
27940;DHT22;15275;51.716;14.324;2023-04-25T00:55:52;11.40;67.40
27940;DHT22;15275;51.716;14.324;2023-04-25T00:58:20;11.40;67.40
27940;DHT22;15275;51.716;14.324;2023-04-25T01:00:47;11.30;67.40
27940;DHT22;15275;51.716;14.324;2023-04-25T01:03:16;11.30;67.50
27940;DHT22;15275;51.716;14.324;2023-04-25T01:05:45;11.30;67.50
27940;DHT22;15275;51.716;14.324;2023-04-25T01:08:12;11.20;67.50
27940;DHT22;15275;51.716;14.324;2023-04-25T01:10:39;11.20;67.50
27940;DHT22;15275;51.716;14.324;2023-04-25T01:13:05;11.10;67.60
27940;DHT22;15275;51.716;14.324;2023-04-25T01:15:31;11.10;67.70
27940;DHT22;15275;51.716;14.324;2023-04-25T01:17:58;11.10;67.70
27940;DHT22;15275;51.716;14.324;2023-04-25T01:20:26;11.00;67.70
27940;DHT22;15275;51.716;14.324;2023-04-25T01:22:54;11.00;67.70
27940;DHT22;15275;51.716;14.324;2023-04-25T01:25:21;11.00;67.70
27940;DHT22;15275;51.716;14.324;2023-04-25T01:27:48;11.00;67.70
27940;DHT22;15275;51.716;14.324;2023-04-25T01:30:14;10.90;67.80
27940;DHT22;15275;51.716;14.324;2023-04-25T01:32:41;10.90;67.90
27940;DHT22;15275;51.716;14.324;2023-04-25T01:35:10;10.80;68.00
27940;DHT22;15275;51.716;14.324;2023-04-25T01:37:40;10.80;68.10
27940;DHT22;15275;51.716;14.324;2023-04-25T01:40:09;10.80;68.20
27940;DHT22;15275;51.716;14.324;2023-04-25T01:42:38;10.70;68.20
27940;DHT22;15275;51.716;14.324;2023-04-25T01:45:06;10.60;68.20
27940;DHT22;15275;51.716;14.324;2023-04-25T01:47:32;10.60;68.30
27940;DHT22;15275;51.716;14.324;2023-04-25T01:50:01;10.60;68.30
27940;DHT22;15275;51.716;14.324;2023-04-25T01:52:28;10.50;68.30
27940;DHT22;15275;51.716;14.324;2023-04-25T01:54:54;10.50;68.40
27940;DHT22;15275;51.716;14.324;2023-04-25T01:57:20;10.50;68.50
27940;DHT22;15275;51.716;14.324;2023-04-25T01:59:46;10.40;68.60
27940;DHT22;15275;51.716;14.324;2023-04-25T02:02:12;10.40;68.70
27940;DHT22;15275;51.716;14.324;2023-04-25T02:04:38;10.40;68.80
27940;DHT22;15275;51.716;14.324;2023-04-25T02:07:04;10.40;68.90
27940;DHT22;15275;51.716;14.324;2023-04-25T02:09:31;10.40;69.00
27940;DHT22;15275;51.716;14.324;2023-04-25T02:11:58;10.40;69.10
27940;DHT22;15275;51.716;14.324;2023-04-25T02:14:24;10.40;69.30
27940;DHT22;15275;51.716;14.324;2023-04-25T02:16:50;10.40;69.30
27940;DHT22;15275;51.716;14.324;2023-04-25T02:19:16;10.50;69.40
27940;DHT22;15275;51.716;14.324;2023-04-25T02:21:42;10.50;69.40
27940;DHT22;15275;51.716;14.324;2023-04-25T02:24:08;10.50;69.40
27940;DHT22;15275;51.716;14.324;2023-04-25T02:26:34;10.60;69.40
27940;DHT22;15275;51.716;14.324;2023-04-25T02:29:00;10.60;69.40
27940;DHT22;15275;51.716;14.324;2023-04-25T02:31:26;10.60;69.40
27940;DHT22;15275;51.716;14.324;2023-04-25T02:33:52;10.70;69.40
27940;DHT22;15275;51.716;14.324;2023-04-25T02:36:18;10.70;69.30
27940;DHT22;15275;51.716;14.324;2023-04-25T02:38:44;10.70;69.20
27940;DHT22;15275;51.716;14.324;2023-04-25T02:41:09;10.70;69.20
27940;DHT22;15275;51.716;14.324;2023-04-25T02:43:35;10.80;69.10
27940;DHT22;15275;51.716;14.324;2023-04-25T02:46:01;10.80;69.00
27940;DHT22;15275;51.716;14.324;2023-04-25T02:48:27;10.80;68.90
27940;DHT22;15275;51.716;14.324;2023-04-25T02:50:54;10.80;68.90
27940;DHT22;15275;51.716;14.324;2023-04-25T02:53:20;10.80;68.90
27940;DHT22;15275;51.716;14.324;2023-04-25T02:55:46;10.80;68.90
27940;DHT22;15275;51.716;14.324;2023-04-25T02:58:12;10.70;68.90
27940;DHT22;15275;51.716;14.324;2023-04-25T03:00:38;10.70;68.90
27940;DHT22;15275;51.716;14.324;2023-04-25T03:03:04;10.70;69.00
27940;DHT22;15275;51.716;14.324;2023-04-25T03:05:29;10.70;69.00
27940;DHT22;15275;51.716;14.324;2023-04-25T03:07:55;10.70;69.10
27940;DHT22;15275;51.716;14.324;2023-04-25T03:10:21;10.70;69.10
27940;DHT22;15275;51.716;14.324;2023-04-25T03:12:47;10.70;69.10
27940;DHT22;15275;51.716;14.324;2023-04-25T03:15:13;10.70;69.20
27940;DHT22;15275;51.716;14.324;2023-04-25T03:17:39;10.70;69.20
27940;DHT22;15275;51.716;14.324;2023-04-25T03:20:06;10.70;69.20
27940;DHT22;15275;51.716;14.324;2023-04-25T03:22:33;10.80;69.20
27940;DHT22;15275;51.716;14.324;2023-04-25T03:24:59;10.70;69.10
27940;DHT22;15275;51.716;14.324;2023-04-25T03:27:25;10.80;69.10
27940;DHT22;15275;51.716;14.324;2023-04-25T03:29:51;10.80;69.00
27940;DHT22;15275;51.716;14.324;2023-04-25T03:32:17;10.80;69.00
27940;DHT22;15275;51.716;14.324;2023-04-25T03:34:43;10.80;69.00
27940;DHT22;15275;51.716;14.324;2023-04-25T03:37:09;10.80;69.10
27940;DHT22;15275;51.716;14.324;2023-04-25T03:39:35;10.80;69.00
27940;DHT22;15275;51.716;14.324;2023-04-25T03:42:01;10.70;68.90
27940;DHT22;15275;51.716;14.324;2023-04-25T03:44:28;10.70;68.80
27940;DHT22;15275;51.716;14.324;2023-04-25T03:46:54;10.70;68.70
27940;DHT22;15275;51.716;14.324;2023-04-25T03:49:20;10.70;68.70
27940;DHT22;15275;51.716;14.324;2023-04-25T03:51:46;10.60;68.60
27940;DHT22;15275;51.716;14.324;2023-04-25T03:54:11;10.60;68.60
27940;DHT22;15275;51.716;14.324;2023-04-25T03:56:37;10.60;68.60
27940;DHT22;15275;51.716;14.324;2023-04-25T03:59:03;10.50;68.60
27940;DHT22;15275;51.716;14.324;2023-04-25T04:01:29;10.50;68.70
27940;DHT22;15275;51.716;14.324;2023-04-25T04:03:55;10.40;68.70
27940;DHT22;15275;51.716;14.324;2023-04-25T04:06:21;10.40;68.80
27940;DHT22;15275;51.716;14.324;2023-04-25T04:08:47;10.30;68.90
27940;DHT22;15275;51.716;14.324;2023-04-25T04:11:13;10.30;69.00
27940;DHT22;15275;51.716;14.324;2023-04-25T04:13:38;10.30;69.00
27940;DHT22;15275;51.716;14.324;2023-04-25T04:16:05;10.20;69.00
27940;DHT22;15275;51.716;14.324;2023-04-25T04:18:31;10.20;69.10
27940;DHT22;15275;51.716;14.324;2023-04-25T04:20:58;10.20;69.10
27940;DHT22;15275;51.716;14.324;2023-04-25T04:23:25;10.10;69.10
27940;DHT22;15275;51.716;14.324;2023-04-25T04:25:53;10.10;69.20
27940;DHT22;15275;51.716;14.324;2023-04-25T04:28:19;10.10;69.30
27940;DHT22;15275;51.716;14.324;2023-04-25T04:30:46;10.10;69.40
27940;DHT22;15275;51.716;14.324;2023-04-25T04:33:13;10.10;69.50
27940;DHT22;15275;51.716;14.324;2023-04-25T04:35:41;10.10;69.60
27940;DHT22;15275;51.716;14.324;2023-04-25T04:38:07;10.10;69.70
27940;DHT22;15275;51.716;14.324;2023-04-25T04:40:33;10.10;69.70
27940;DHT22;15275;51.716;14.324;2023-04-25T04:42:59;10.10;69.70
27940;DHT22;15275;51.716;14.324;2023-04-25T04:45:24;10.10;69.80
27940;DHT22;15275;51.716;14.324;2023-04-25T04:47:50;10.10;69.90
27940;DHT22;15275;51.716;14.324;2023-04-25T04:50:16;10.10;70.10
27940;DHT22;15275;51.716;14.324;2023-04-25T04:52:43;10.10;70.30
27940;DHT22;15275;51.716;14.324;2023-04-25T04:55:09;10.10;70.40
27940;DHT22;15275;51.716;14.324;2023-04-25T04:57:35;10.20;70.50
27940;DHT22;15275;51.716;14.324;2023-04-25T05:00:01;10.20;70.60
27940;DHT22;15275;51.716;14.324;2023-04-25T05:02:30;10.30;70.80
27940;DHT22;15275;51.716;14.324;2023-04-25T05:04:56;10.30;70.90
27940;DHT22;15275;51.716;14.324;2023-04-25T05:07:22;10.40;70.90
27940;DHT22;15275;51.716;14.324;2023-04-25T05:09:48;10.50;71.00
27940;DHT22;15275;51.716;14.324;2023-04-25T05:12:14;10.60;71.10
27940;DHT22;15275;51.716;14.324;2023-04-25T05:14:40;10.60;71.00
27940;DHT22;15275;51.716;14.324;2023-04-25T05:17:06;10.70;71.20
27940;DHT22;15275;51.716;14.324;2023-04-25T05:19:34;10.80;71.20
27940;DHT22;15275;51.716;14.324;2023-04-25T05:22:00;10.90;71.20
27940;DHT22;15275;51.716;14.324;2023-04-25T05:24:25;11.10;71.30
27940;DHT22;15275;51.716;14.324;2023-04-25T05:26:51;11.20;71.70
27940;DHT22;15275;51.716;14.324;2023-04-25T05:29:17;11.50;71.90
27940;DHT22;15275;51.716;14.324;2023-04-25T05:31:44;11.70;71.90
27940;DHT22;15275;51.716;14.324;2023-04-25T05:34:10;12.00;71.70
27940;DHT22;15275;51.716;14.324;2023-04-25T05:36:36;12.40;71.20
27940;DHT22;15275;51.716;14.324;2023-04-25T05:39:02;12.70;70.80
27940;DHT22;15275;51.716;14.324;2023-04-25T05:41:29;13.00;70.20
27940;DHT22;15275;51.716;14.324;2023-04-25T05:43:55;13.20;69.60
27940;DHT22;15275;51.716;14.324;2023-04-25T05:46:21;13.50;69.00
27940;DHT22;15275;51.716;14.324;2023-04-25T05:48:47;13.80;68.40
27940;DHT22;15275;51.716;14.324;2023-04-25T05:51:13;14.10;68.00
27940;DHT22;15275;51.716;14.324;2023-04-25T05:53:38;14.30;67.40
27940;DHT22;15275;51.716;14.324;2023-04-25T05:56:04;14.50;66.90
27940;DHT22;15275;51.716;14.324;2023-04-25T05:58:30;14.70;66.40
27940;DHT22;15275;51.716;14.324;2023-04-25T06:00:56;14.90;65.90
27940;DHT22;15275;51.716;14.324;2023-04-25T06:03:22;15.10;65.30
27940;DHT22;15275;51.716;14.324;2023-04-25T06:05:48;15.20;64.80
27940;DHT22;15275;51.716;14.324;2023-04-25T06:08:14;15.30;64.30
27940;DHT22;15275;51.716;14.324;2023-04-25T06:10:40;15.30;64.10
27940;DHT22;15275;51.716;14.324;2023-04-25T06:13:05;15.30;63.80
27940;DHT22;15275;51.716;14.324;2023-04-25T06:15:31;15.20;63.30
27940;DHT22;15275;51.716;14.324;2023-04-25T06:17:58;15.10;63.40
27940;DHT22;15275;51.716;14.324;2023-04-25T06:20:24;15.10;63.50
27940;DHT22;15275;51.716;14.324;2023-04-25T06:22:51;15.00;63.20
27940;DHT22;15275;51.716;14.324;2023-04-25T06:25:17;15.00;63.20
27940;DHT22;15275;51.716;14.324;2023-04-25T06:27:43;15.00;63.10
27940;DHT22;15275;51.716;14.324;2023-04-25T06:30:09;15.00;63.10
27940;DHT22;15275;51.716;14.324;2023-04-25T06:32:37;14.90;63.10
27940;DHT22;15275;51.716;14.324;2023-04-25T06:35:04;14.90;62.80
27940;DHT22;15275;51.716;14.324;2023-04-25T06:37:30;14.90;62.50
27940;DHT22;15275;51.716;14.324;2023-04-25T06:39:56;14.80;62.50
27940;DHT22;15275;51.716;14.324;2023-04-25T06:42:22;14.70;62.60
27940;DHT22;15275;51.716;14.324;2023-04-25T06:44:48;14.60;62.70
27940;DHT22;15275;51.716;14.324;2023-04-25T06:47:14;14.60;62.80
27940;DHT22;15275;51.716;14.324;2023-04-25T06:49:40;14.50;62.80
27940;DHT22;15275;51.716;14.324;2023-04-25T06:52:07;14.50;62.90
27940;DHT22;15275;51.716;14.324;2023-04-25T06:54:33;14.50;63.20
27940;DHT22;15275;51.716;14.324;2023-04-25T06:56:59;14.60;62.80
27940;DHT22;15275;51.716;14.324;2023-04-25T06:59:26;14.60;62.80
27940;DHT22;15275;51.716;14.324;2023-04-25T07:01:52;14.60;62.80
27940;DHT22;15275;51.716;14.324;2023-04-25T07:04:18;14.60;62.80
27940;DHT22;15275;51.716;14.324;2023-04-25T07:06:44;14.60;62.70
27940;DHT22;15275;51.716;14.324;2023-04-25T07:09:12;14.60;62.40
27940;DHT22;15275;51.716;14.324;2023-04-25T07:11:38;14.60;62.40
27940;DHT22;15275;51.716;14.324;2023-04-25T07:14:04;14.60;62.50
27940;DHT22;15275;51.716;14.324;2023-04-25T07:16:30;14.60;62.60
27940;DHT22;15275;51.716;14.324;2023-04-25T07:18:56;14.60;62.60
27940;DHT22;15275;51.716;14.324;2023-04-25T07:21:22;14.60;62.50
27940;DHT22;15275;51.716;14.324;2023-04-25T07:23:48;14.70;62.50
27940;DHT22;15275;51.716;14.324;2023-04-25T07:26:14;14.70;62.70
27940;DHT22;15275;51.716;14.324;2023-04-25T07:28:40;14.80;62.40
27940;DHT22;15275;51.716;14.324;2023-04-25T07:31:06;14.80;62.50
27940;DHT22;15275;51.716;14.324;2023-04-25T07:33:33;14.80;62.30
27940;DHT22;15275;51.716;14.324;2023-04-25T07:35:59;14.90;62.10
27940;DHT22;15275;51.716;14.324;2023-04-25T07:38:25;14.90;61.90
27940;DHT22;15275;51.716;14.324;2023-04-25T07:40:51;14.90;61.70
27940;DHT22;15275;51.716;14.324;2023-04-25T07:43:17;14.90;61.70
27940;DHT22;15275;51.716;14.324;2023-04-25T07:45:43;14.90;61.40
27940;DHT22;15275;51.716;14.324;2023-04-25T07:48:09;14.90;60.90
27940;DHT22;15275;51.716;14.324;2023-04-25T07:50:36;14.80;61.10
27940;DHT22;15275;51.716;14.324;2023-04-25T07:53:02;14.80;60.20
27940;DHT22;15275;51.716;14.324;2023-04-25T07:55:27;14.70;60.40
27940;DHT22;15275;51.716;14.324;2023-04-25T07:57:53;14.70;60.70
27940;DHT22;15275;51.716;14.324;2023-04-25T08:00:19;14.70;61.00
27940;DHT22;15275;51.716;14.324;2023-04-25T08:02:45;14.70;61.20
27940;DHT22;15275;51.716;14.324;2023-04-25T08:05:11;14.70;61.10
27940;DHT22;15275;51.716;14.324;2023-04-25T08:07:40;14.80;61.10
27940;DHT22;15275;51.716;14.324;2023-04-25T08:10:07;14.80;61.20
27940;DHT22;15275;51.716;14.324;2023-04-25T08:12:33;14.90;61.30
27940;DHT22;15275;51.716;14.324;2023-04-25T08:14:59;14.90;61.30
27940;DHT22;15275;51.716;14.324;2023-04-25T08:17:25;15.00;61.10
27940;DHT22;15275;51.716;14.324;2023-04-25T08:19:51;15.10;60.90
27940;DHT22;15275;51.716;14.324;2023-04-25T08:22:17;15.10;60.80
27940;DHT22;15275;51.716;14.324;2023-04-25T08:24:43;15.10;60.80
27940;DHT22;15275;51.716;14.324;2023-04-25T08:27:09;15.20;60.70
27940;DHT22;15275;51.716;14.324;2023-04-25T08:29:35;15.20;60.80
27940;DHT22;15275;51.716;14.324;2023-04-25T08:32:00;15.20;60.60
27940;DHT22;15275;51.716;14.324;2023-04-25T08:34:26;15.30;60.40
27940;DHT22;15275;51.716;14.324;2023-04-25T08:36:52;15.30;60.50
27940;DHT22;15275;51.716;14.324;2023-04-25T08:39:18;15.40;60.50
27940;DHT22;15275;51.716;14.324;2023-04-25T08:41:44;15.50;60.70
27940;DHT22;15275;51.716;14.324;2023-04-25T08:44:11;15.50;60.50
27940;DHT22;15275;51.716;14.324;2023-04-25T08:46:40;15.60;60.10
27940;DHT22;15275;51.716;14.324;2023-04-25T08:49:08;15.60;59.90
27940;DHT22;15275;51.716;14.324;2023-04-25T08:51:45;15.60;59.80
27940;DHT22;15275;51.716;14.324;2023-04-25T08:54:13;15.60;59.60
27940;DHT22;15275;51.716;14.324;2023-04-25T08:56:49;15.60;59.90
27940;DHT22;15275;51.716;14.324;2023-04-25T08:59:15;15.60;59.40
27940;DHT22;15275;51.716;14.324;2023-04-25T09:01:42;15.60;59.60
27940;DHT22;15275;51.716;14.324;2023-04-25T09:04:08;15.60;59.50
27940;DHT22;15275;51.716;14.324;2023-04-25T09:06:35;15.60;59.80
27940;DHT22;15275;51.716;14.324;2023-04-25T09:09:03;15.60;59.20
27940;DHT22;15275;51.716;14.324;2023-04-25T09:11:31;15.60;59.30
27940;DHT22;15275;51.716;14.324;2023-04-25T09:14:19;15.60;59.50
27940;DHT22;15275;51.716;14.324;2023-04-25T09:17:02;15.60;59.10
27940;DHT22;15275;51.716;14.324;2023-04-25T09:19:32;15.60;59.40
27940;DHT22;15275;51.716;14.324;2023-04-25T09:22:02;15.60;59.80
27940;DHT22;15275;51.716;14.324;2023-04-25T09:26:59;15.60;60.10
27940;DHT22;15275;51.716;14.324;2023-04-25T09:29:34;15.70;60.10
27940;DHT22;15275;51.716;14.324;2023-04-25T09:32:19;15.70;59.90
27940;DHT22;15275;51.716;14.324;2023-04-25T09:34:49;15.80;59.50
27940;DHT22;15275;51.716;14.324;2023-04-25T09:37:29;15.90;60.30
27940;DHT22;15275;51.716;14.324;2023-04-25T09:39:57;16.00;59.30
27940;DHT22;15275;51.716;14.324;2023-04-25T09:42:31;16.00;59.90
27940;DHT22;15275;51.716;14.324;2023-04-25T09:44:58;16.10;59.60
27940;DHT22;15275;51.716;14.324;2023-04-25T09:47:26;16.20;59.40
27940;DHT22;15275;51.716;14.324;2023-04-25T09:49:54;16.20;59.10
27940;DHT22;15275;51.716;14.324;2023-04-25T09:52:22;16.20;58.80
27940;DHT22;15275;51.716;14.324;2023-04-25T09:54:50;16.30;58.30
27940;DHT22;15275;51.716;14.324;2023-04-25T09:57:24;16.20;58.20
27940;DHT22;15275;51.716;14.324;2023-04-25T09:59:52;16.20;58.20
27940;DHT22;15275;51.716;14.324;2023-04-25T10:02:23;16.20;58.60
27940;DHT22;15275;51.716;14.324;2023-04-25T10:04:52;16.20;58.50
27940;DHT22;15275;51.716;14.324;2023-04-25T10:07:22;16.20;58.10
27940;DHT22;15275;51.716;14.324;2023-04-25T10:10:04;16.10;58.60
27940;DHT22;15275;51.716;14.324;2023-04-25T10:12:33;15.80;59.50
27940;DHT22;15275;51.716;14.324;2023-04-25T10:14:59;15.60;60.00
27940;DHT22;15275;51.716;14.324;2023-04-25T10:17:28;15.40;60.80
27940;DHT22;15275;51.716;14.324;2023-04-25T10:19:56;15.20;61.60
27940;DHT22;15275;51.716;14.324;2023-04-25T10:22:35;15.00;62.10
27940;DHT22;15275;51.716;14.324;2023-04-25T10:25:04;14.90;62.90
27940;DHT22;15275;51.716;14.324;2023-04-25T10:27:34;14.90;63.40
27940;DHT22;15275;51.716;14.324;2023-04-25T10:30:09;14.90;64.20
27940;DHT22;15275;51.716;14.324;2023-04-25T10:32:38;15.00;63.50
27940;DHT22;15275;51.716;14.324;2023-04-25T10:35:24;15.00;63.30
27940;DHT22;15275;51.716;14.324;2023-04-25T10:40:24;15.10;63.20
27940;DHT22;15275;51.716;14.324;2023-04-25T10:42:54;15.10;63.40
27940;DHT22;15275;51.716;14.324;2023-04-25T10:45:21;15.10;62.90
27940;DHT22;15275;51.716;14.324;2023-04-25T10:47:48;15.00;62.80
27940;DHT22;15275;51.716;14.324;2023-04-25T10:50:17;15.00;63.00
27940;DHT22;15275;51.716;14.324;2023-04-25T10:52:43;15.10;63.10
27940;DHT22;15275;51.716;14.324;2023-04-25T10:55:10;15.10;63.20
27940;DHT22;15275;51.716;14.324;2023-04-25T10:57:39;15.10;63.10
27940;DHT22;15275;51.716;14.324;2023-04-25T11:00:08;15.20;63.10
27940;DHT22;15275;51.716;14.324;2023-04-25T11:02:58;15.20;63.30
27940;DHT22;15275;51.716;14.324;2023-04-25T11:05:35;15.30;63.10
27940;DHT22;15275;51.716;14.324;2023-04-25T11:08:02;15.30;62.80
27940;DHT22;15275;51.716;14.324;2023-04-25T11:10:33;15.40;62.50
27940;DHT22;15275;51.716;14.324;2023-04-25T11:13:02;15.40;62.10
27940;DHT22;15275;51.716;14.324;2023-04-25T11:15:28;15.30;62.30
27940;DHT22;15275;51.716;14.324;2023-04-25T11:17:55;15.30;62.40
27940;DHT22;15275;51.716;14.324;2023-04-25T11:20:21;15.20;62.60
27940;DHT22;15275;51.716;14.324;2023-04-25T11:22:48;15.20;63.20
27940;DHT22;15275;51.716;14.324;2023-04-25T11:25:15;15.30;63.40
27940;DHT22;15275;51.716;14.324;2023-04-25T11:27:55;15.50;63.10
27940;DHT22;15275;51.716;14.324;2023-04-25T11:30:26;15.60;62.20
27940;DHT22;15275;51.716;14.324;2023-04-25T11:32:53;15.60;61.70
27940;DHT22;15275;51.716;14.324;2023-04-25T11:35:19;15.70;61.30
27940;DHT22;15275;51.716;14.324;2023-04-25T11:37:48;15.70;61.30
27940;DHT22;15275;51.716;14.324;2023-04-25T11:40:15;15.70;61.20
27940;DHT22;15275;51.716;14.324;2023-04-25T11:42:46;15.80;61.10
27940;DHT22;15275;51.716;14.324;2023-04-25T11:45:13;15.80;60.80
27940;DHT22;15275;51.716;14.324;2023-04-25T11:47:40;15.80;61.00
27940;DHT22;15275;51.716;14.324;2023-04-25T11:50:07;15.80;61.40
27940;DHT22;15275;51.716;14.324;2023-04-25T11:52:46;15.90;61.10
27940;DHT22;15275;51.716;14.324;2023-04-25T11:55:19;15.90;60.70
27940;DHT22;15275;51.716;14.324;2023-04-25T11:57:48;16.00;60.70
27940;DHT22;15275;51.716;14.324;2023-04-25T12:00:20;16.20;60.90
27940;DHT22;15275;51.716;14.324;2023-04-25T12:02:50;16.20;59.80
27940;DHT22;15275;51.716;14.324;2023-04-25T12:05:23;16.30;59.70
27940;DHT22;15275;51.716;14.324;2023-04-25T12:07:50;16.20;59.30
27940;DHT22;15275;51.716;14.324;2023-04-25T12:10:17;16.20;59.00
27940;DHT22;15275;51.716;14.324;2023-04-25T12:12:45;16.10;58.50
27940;DHT22;15275;51.716;14.324;2023-04-25T12:17:45;15.70;58.80
27940;DHT22;15275;51.716;14.324;2023-04-25T12:20:17;15.60;58.80
27940;DHT22;15275;51.716;14.324;2023-04-25T12:22:46;15.40;58.70
27940;DHT22;15275;51.716;14.324;2023-04-25T12:25:35;15.20;58.80
27940;DHT22;15275;51.716;14.324;2023-04-25T12:28:20;15.00;58.50
27940;DHT22;15275;51.716;14.324;2023-04-25T12:33:34;14.70;59.20
27940;DHT22;15275;51.716;14.324;2023-04-25T12:36:02;14.60;59.20
27940;DHT22;15275;51.716;14.324;2023-04-25T12:38:37;14.50;59.40
27940;DHT22;15275;51.716;14.324;2023-04-25T12:41:04;14.50;59.80
27940;DHT22;15275;51.716;14.324;2023-04-25T12:43:30;14.50;60.20
27940;DHT22;15275;51.716;14.324;2023-04-25T12:45:56;14.60;60.30
27940;DHT22;15275;51.716;14.324;2023-04-25T12:48:22;14.60;59.80
27940;DHT22;15275;51.716;14.324;2023-04-25T12:50:50;14.70;59.60
27940;DHT22;15275;51.716;14.324;2023-04-25T12:53:17;14.70;59.60
27940;DHT22;15275;51.716;14.324;2023-04-25T12:55:45;14.70;59.60
27940;DHT22;15275;51.716;14.324;2023-04-25T12:58:15;14.80;59.30
27940;DHT22;15275;51.716;14.324;2023-04-25T13:00:43;14.80;58.80
27940;DHT22;15275;51.716;14.324;2023-04-25T13:03:10;14.90;58.80
27940;DHT22;15275;51.716;14.324;2023-04-25T13:05:39;14.90;58.80
27940;DHT22;15275;51.716;14.324;2023-04-25T13:08:05;14.90;58.70
27940;DHT22;15275;51.716;14.324;2023-04-25T13:10:31;15.00;58.70
27940;DHT22;15275;51.716;14.324;2023-04-25T13:12:59;15.10;58.90
27940;DHT22;15275;51.716;14.324;2023-04-25T13:15:26;15.20;58.30
27940;DHT22;15275;51.716;14.324;2023-04-25T13:17:52;15.20;58.00
27940;DHT22;15275;51.716;14.324;2023-04-25T13:20:18;15.30;57.60
27940;DHT22;15275;51.716;14.324;2023-04-25T13:22:47;15.30;57.30
27940;DHT22;15275;51.716;14.324;2023-04-25T13:25:13;15.40;56.80
27940;DHT22;15275;51.716;14.324;2023-04-25T13:27:39;15.40;56.30
27940;DHT22;15275;51.716;14.324;2023-04-25T13:30:07;15.40;55.90
27940;DHT22;15275;51.716;14.324;2023-04-25T13:32:34;15.40;55.80
27940;DHT22;15275;51.716;14.324;2023-04-25T13:35:05;15.40;55.80
27940;DHT22;15275;51.716;14.324;2023-04-25T13:37:36;15.40;55.80
27940;DHT22;15275;51.716;14.324;2023-04-25T13:40:03;15.50;55.60
27940;DHT22;15275;51.716;14.324;2023-04-25T13:42:32;15.50;55.60
27940;DHT22;15275;51.716;14.324;2023-04-25T13:44:57;15.60;55.90
27940;DHT22;15275;51.716;14.324;2023-04-25T13:47:25;15.60;55.20
27940;DHT22;15275;51.716;14.324;2023-04-25T13:49:51;15.70;55.20
27940;DHT22;15275;51.716;14.324;2023-04-25T13:52:17;15.80;55.00
27940;DHT22;15275;51.716;14.324;2023-04-25T13:54:43;15.80;55.20
27940;DHT22;15275;51.716;14.324;2023-04-25T13:57:09;15.80;55.20
27940;DHT22;15275;51.716;14.324;2023-04-25T13:59:37;15.90;55.10
27940;DHT22;15275;51.716;14.324;2023-04-25T14:02:03;15.90;55.00
27940;DHT22;15275;51.716;14.324;2023-04-25T14:04:29;15.90;54.60
27940;DHT22;15275;51.716;14.324;2023-04-25T14:06:55;15.90;54.70
27940;DHT22;15275;51.716;14.324;2023-04-25T14:09:21;16.00;54.50
27940;DHT22;15275;51.716;14.324;2023-04-25T14:11:54;16.00;54.30
27940;DHT22;15275;51.716;14.324;2023-04-25T14:14:21;16.00;53.80
27940;DHT22;15275;51.716;14.324;2023-04-25T14:16:48;16.00;53.70
27940;DHT22;15275;51.716;14.324;2023-04-25T14:19:14;16.00;53.60
27940;DHT22;15275;51.716;14.324;2023-04-25T14:21:40;16.00;53.60
27940;DHT22;15275;51.716;14.324;2023-04-25T14:24:06;16.00;53.30
27940;DHT22;15275;51.716;14.324;2023-04-25T14:26:33;16.00;53.20
27940;DHT22;15275;51.716;14.324;2023-04-25T14:29:06;16.00;53.10
27940;DHT22;15275;51.716;14.324;2023-04-25T14:31:33;16.00;52.20
27940;DHT22;15275;51.716;14.324;2023-04-25T14:33:59;16.00;52.10
27940;DHT22;15275;51.716;14.324;2023-04-25T14:36:25;15.90;51.60
27940;DHT22;15275;51.716;14.324;2023-04-25T14:38:52;15.80;51.40
27940;DHT22;15275;51.716;14.324;2023-04-25T14:41:18;15.70;51.60
27940;DHT22;15275;51.716;14.324;2023-04-25T14:43:44;15.60;51.80
27940;DHT22;15275;51.716;14.324;2023-04-25T14:46:10;15.60;52.30
27940;DHT22;15275;51.716;14.324;2023-04-25T14:48:36;15.50;52.40
27940;DHT22;15275;51.716;14.324;2023-04-25T14:51:02;15.50;52.50
27940;DHT22;15275;51.716;14.324;2023-04-25T14:53:30;15.40;52.70
27940;DHT22;15275;51.716;14.324;2023-04-25T14:55:56;15.40;52.70
27940;DHT22;15275;51.716;14.324;2023-04-25T14:58:22;15.40;52.60
27940;DHT22;15275;51.716;14.324;2023-04-25T15:00:48;15.30;52.50
27940;DHT22;15275;51.716;14.324;2023-04-25T15:03:14;15.30;52.20
27940;DHT22;15275;51.716;14.324;2023-04-25T15:05:42;15.20;52.30
27940;DHT22;15275;51.716;14.324;2023-04-25T15:08:08;15.20;52.30
27940;DHT22;15275;51.716;14.324;2023-04-25T15:10:36;15.10;52.40
27940;DHT22;15275;51.716;14.324;2023-04-25T15:13:03;15.10;52.40
27940;DHT22;15275;51.716;14.324;2023-04-25T15:15:29;15.10;52.30
27940;DHT22;15275;51.716;14.324;2023-04-25T15:17:56;15.00;52.20
27940;DHT22;15275;51.716;14.324;2023-04-25T15:20:24;15.00;52.20
27940;DHT22;15275;51.716;14.324;2023-04-25T15:22:50;15.00;52.20
27940;DHT22;15275;51.716;14.324;2023-04-25T15:25:16;15.00;52.30
27940;DHT22;15275;51.716;14.324;2023-04-25T15:27:46;15.00;52.00
27940;DHT22;15275;51.716;14.324;2023-04-25T15:30:17;15.00;51.80